Time;durP1;ratioP1;P1;durP2;ratioP2;P2;SDS_P1;SDS_P2;PMS_P1;PMS_P2;Temp;Humidity;BMP_temperature;BMP_pressure;BME280_temperature;BME280_humidity;BME280_pressure;Samples;Min_cycle;Max_cycle;Signal;HPM_P1;HPM_P2
2023/12/23 00:01:28;;;;;;;22.10;1.88;;;;;;;;;;4974486;28;20486;-72
2023/12/23 00:03:55;;;;;;;11.68;1.75;;;;;;;;;;4983774;28;20053;-72
2023/12/23 00:06:22;;;;;;;14.48;2.03;;;;;;;;;;4980609;28;20054;-72
2023/12/23 00:08:51;;;;;;;17.55;1.85;;;;;;;;;;4981815;28;20058;-72
2023/12/23 00:11:18;;;;;;;14.35;2.15;;;;;;;;;;4974658;28;20066;-72
2023/12/23 00:13:45;;;;;;;18.63;1.92;;;;;;;;;;4980382;28;20062;-72
2023/12/23 00:16:12;;;;;;;16.25;2.00;;;;;;;;;;4977932;28;20459;-72
2023/12/23 00:18:40;;;;;;;16.42;1.73;;;;;;;;;;4990462;28;20046;-72
2023/12/23 00:21:07;;;;;;;11.85;2.17;;;;;;;;;;4978510;28;20831;-72
2023/12/23 00:23:34;;;;;;;17.48;2.03;;;;;;;;;;4975613;28;20058;-72
2023/12/23 00:26:03;;;;;;;18.58;2.30;;;;;;;;;;4989336;28;20100;-72
2023/12/23 00:28:30;;;;;;;14.32;1.90;;;;;;;;;;4975731;28;20047;-72
2023/12/23 00:30:57;;;;;;;18.95;2.67;;;;;;;;;;4978433;28;20070;-72
2023/12/23 00:33:25;;;;;;;21.23;2.65;;;;;;;;;;4977969;28;20054;-72
2023/12/23 00:35:52;;;;;;;18.38;1.90;;;;;;;;;;4989273;28;20054;-72
2023/12/23 00:38:19;;;;;;;18.35;2.40;;;;;;;;;;4988858;28;20054;-72
2023/12/23 00:40:46;;;;;;;15.88;2.92;;;;;;;;;;4995566;28;20061;-72
2023/12/23 00:43:15;;;;;;;18.13;2.33;;;;;;;;;;4973502;28;20061;-72
2023/12/23 00:45:42;;;;;;;15.10;1.60;;;;;;;;;;4974370;28;20494;-71
2023/12/23 00:48:11;;;;;;;12.38;1.77;;;;;;;;;;4977962;28;20066;-72
2023/12/23 00:50:38;;;;;;;15.75;1.65;;;;;;;;;;4978672;28;20046;-72
2023/12/23 00:53:06;;;;;;;20.20;2.10;;;;;;;;;;4977185;28;20085;-72
2023/12/23 00:55:33;;;;;;;17.02;1.88;;;;;;;;;;4969987;28;20082;-72
2023/12/23 00:58:00;;;;;;;16.52;1.35;;;;;;;;;;4983159;28;20069;-73
2023/12/23 01:00:29;;;;;;;22.40;1.88;;;;;;;;;;4977127;28;20058;-72
2023/12/23 01:02:56;;;;;;;14.15;1.55;;;;;;;;;;4981845;28;20050;-73
2023/12/23 01:05:23;;;;;;;6.97;1.08;;;;;;;;;;4975647;28;20047;-72
2023/12/23 01:07:51;;;;;;;14.18;1.60;;;;;;;;;;4978830;28;20089;-72
2023/12/23 01:10:21;;;;;;;15.35;1.45;;;;;;;;;;4979962;28;20054;-72
2023/12/23 01:12:49;;;;;;;13.48;1.40;;;;;;;;;;4988966;28;20078;-72
2023/12/23 01:15:16;;;;;;;17.65;1.50;;;;;;;;;;4988912;28;20069;-72
2023/12/23 01:17:45;;;;;;;16.98;1.25;;;;;;;;;;4979357;28;20058;-72
2023/12/23 01:20:12;;;;;;;13.55;1.90;;;;;;;;;;4989568;28;20058;-72
2023/12/23 01:22:40;;;;;;;9.57;1.63;;;;;;;;;;4976224;28;20413;-72
2023/12/23 01:25:07;;;;;;;11.80;2.13;;;;;;;;;;4981559;28;20785;-72
2023/12/23 01:27:35;;;;;;;11.40;1.13;;;;;;;;;;4988101;28;20054;-72
2023/12/23 01:30:02;;;;;;;11.93;1.38;;;;;;;;;;4974401;28;20042;-72
2023/12/23 01:32:30;;;;;;;8.32;1.00;;;;;;;;;;4981900;28;20134;-72
2023/12/23 01:34:58;;;;;;;9.60;1.23;;;;;;;;;;4973651;28;20054;-73
2023/12/23 01:37:26;;;;;;;6.18;1.08;;;;;;;;;;4973317;28;20053;-72
2023/12/23 01:39:53;;;;;;;8.48;1.00;;;;;;;;;;4976208;28;20108;-72
2023/12/23 01:42:20;;;;;;;9.18;1.42;;;;;;;;;;4980085;28;20050;-72
2023/12/23 01:44:47;;;;;;;10.82;1.23;;;;;;;;;;4974996;28;20142;-75
2023/12/23 01:47:15;;;;;;;8.55;0.85;;;;;;;;;;4971803;28;20304;-75
2023/12/23 01:49:43;;;;;;;9.50;0.82;;;;;;;;;;4974306;28;20058;-76
2023/12/23 01:52:12;;;;;;;7.28;0.85;;;;;;;;;;4971376;28;20050;-75
2023/12/23 01:54:39;;;;;;;7.00;0.68;;;;;;;;;;4981706;28;20050;-74
2023/12/23 01:57:06;;;;;;;11.45;1.00;;;;;;;;;;4977219;28;20058;-75
2023/12/23 01:59:34;;;;;;;12.77;1.00;;;;;;;;;;4972304;28;20058;-76
2023/12/23 02:02:02;;;;;;;11.35;1.00;;;;;;;;;;4982616;28;20085;-75
2023/12/23 02:04:29;;;;;;;18.83;1.10;;;;;;;;;;4970180;28;20073;-74
2023/12/23 02:06:56;;;;;;;13.77;1.02;;;;;;;;;;4975478;28;20046;-75
2023/12/23 02:09:25;;;;;;;12.38;1.05;;;;;;;;;;4974329;28;20050;-75
2023/12/23 02:11:56;;;;;;;9.68;0.95;;;;;;;;;;4972500;28;20050;-76
2023/12/23 02:14:28;;;;;;;6.10;0.57;;;;;;;;;;4979109;28;20058;-76
2023/12/23 02:16:55;;;;;;;14.13;0.98;;;;;;;;;;4971040;28;20120;-75
2023/12/23 02:19:23;;;;;;;12.55;1.23;;;;;;;;;;4989184;28;20054;-76
2023/12/23 02:21:51;;;;;;;7.80;1.67;;;;;;;;;;4978241;28;20054;-75
2023/12/23 02:24:19;;;;;;;12.00;1.85;;;;;;;;;;4973964;28;20096;-75
2023/12/23 02:26:47;;;;;;;8.27;0.80;;;;;;;;;;4981225;28;20046;-75
2023/12/23 02:29:16;;;;;;;11.60;1.10;;;;;;;;;;4975989;28;20058;-75
2023/12/23 02:31:43;;;;;;;18.38;1.10;;;;;;;;;;4973498;28;20069;-75
2023/12/23 02:34:11;;;;;;;8.13;0.80;;;;;;;;;;4973890;28;20054;-75
2023/12/23 02:36:40;;;;;;;12.20;0.95;;;;;;;;;;4971156;28;20374;-75
2023/12/23 02:39:08;;;;;;;14.82;1.88;;;;;;;;;;4969565;28;20073;-75
2023/12/23 02:41:35;;;;;;;11.45;1.05;;;;;;;;;;4977853;28;20050;-75
2023/12/23 02:44:03;;;;;;;11.60;0.88;;;;;;;;;;4971430;28;20055;-74
2023/12/23 02:46:30;;;;;;;10.75;0.90;;;;;;;;;;4987337;28;20089;-74
2023/12/23 02:48:59;;;;;;;11.63;1.92;;;;;;;;;;4977025;28;20069;-75
2023/12/23 02:51:27;;;;;;;14.68;0.98;;;;;;;;;;4972942;28;20116;-74
2023/12/23 02:53:54;;;;;;;9.88;1.42;;;;;;;;;;4988637;28;20043;-74
2023/12/23 02:56:23;;;;;;;12.32;1.00;;;;;;;;;;4973228;28;20049;-74
2023/12/23 02:58:50;;;;;;;14.15;1.13;;;;;;;;;;4977142;28;20054;-74
2023/12/23 03:01:20;;;;;;;13.65;1.08;;;;;;;;;;4980693;28;20054;-74
2023/12/23 03:03:47;;;;;;;11.48;1.05;;;;;;;;;;4978231;28;20065;-74
2023/12/23 03:06:15;;;;;;;11.38;1.20;;;;;;;;;;4991567;28;20552;-75
2023/12/23 03:08:42;;;;;;;8.43;1.10;;;;;;;;;;4979187;28;20046;-74
2023/12/23 03:11:09;;;;;;;13.98;1.08;;;;;;;;;;4974163;28;20070;-74
2023/12/23 03:13:38;;;;;;;10.80;0.70;;;;;;;;;;4979852;28;20108;-74
2023/12/23 03:16:15;;;;;;;12.38;1.02;;;;;;;;;;4972863;28;20049;-73
2023/12/23 03:18:42;;;;;;;16.38;1.27;;;;;;;;;;4992203;28;20046;-74
2023/12/23 03:21:10;;;;;;;14.95;1.08;;;;;;;;;;4987851;28;20065;-73
2023/12/23 03:23:37;;;;;;;10.07;1.27;;;;;;;;;;4988636;28;20764;-73
2023/12/23 03:26:04;;;;;;;6.95;1.00;;;;;;;;;;4982440;28;20054;-73
2023/12/23 03:28:31;;;;;;;14.80;1.42;;;;;;;;;;4975327;28;20054;-73
2023/12/23 03:31:00;;;;;;;15.45;1.00;;;;;;;;;;4988569;28;20046;-74
2023/12/23 03:33:27;;;;;;;10.05;1.10;;;;;;;;;;4990205;28;20047;-74
2023/12/23 03:35:55;;;;;;;14.77;1.10;;;;;;;;;;4978263;28;20141;-73
2023/12/23 03:38:22;;;;;;;20.13;1.50;;;;;;;;;;4975118;28;20058;-73
2023/12/23 03:40:50;;;;;;;11.38;0.90;;;;;;;;;;4980036;28;20108;-73
2023/12/23 03:43:17;;;;;;;9.40;1.08;;;;;;;;;;4983455;28;20050;-73
2023/12/23 03:45:44;;;;;;;13.60;1.05;;;;;;;;;;4979540;28;20045;-73
2023/12/23 03:48:13;;;;;;;21.73;1.42;;;;;;;;;;4991041;28;20054;-73
2023/12/23 03:50:40;;;;;;;11.48;0.90;;;;;;;;;;4991290;28;20043;-74
2023/12/23 03:53:08;;;;;;;11.27;0.95;;;;;;;;;;4977834;28;20146;-73
2023/12/23 03:55:38;;;;;;;18.50;1.58;;;;;;;;;;4974505;28;20046;-73
2023/12/23 03:58:05;;;;;;;10.27;1.17;;;;;;;;;;4970952;28;20101;-73
2023/12/23 04:00:32;;;;;;;8.38;0.85;;;;;;;;;;4973757;28;20474;-73
2023/12/23 04:03:00;;;;;;;13.05;0.88;;;;;;;;;;4977869;28;20053;-68
2023/12/23 04:05:28;;;;;;;15.55;1.10;;;;;;;;;;4978649;28;20046;-67
2023/12/23 04:07:56;;;;;;;26.08;1.20;;;;;;;;;;4975680;28;20053;-68
2023/12/23 04:10:23;;;;;;;16.02;1.30;;;;;;;;;;4989451;28;20050;-68
2023/12/23 04:12:50;;;;;;;15.55;1.02;;;;;;;;;;4975717;28;20050;-68
2023/12/23 04:15:17;;;;;;;8.75;0.98;;;;;;;;;;4980382;28;20074;-68
2023/12/23 04:17:45;;;;;;;17.15;1.08;;;;;;;;;;4980611;28;20057;-68
2023/12/23 04:20:12;;;;;;;15.43;0.88;;;;;;;;;;4990317;28;20109;-67
2023/12/23 04:22:44;;;;;;;12.05;0.80;;;;;;;;;;4990019;28;20042;-68
2023/12/23 04:25:12;;;;;;;8.32;1.00;;;;;;;;;;4990430;28;20038;-68
2023/12/23 04:27:39;;;;;;;7.78;0.80;;;;;;;;;;4981892;28;20054;-68
2023/12/23 04:30:07;;;;;;;11.23;0.90;;;;;;;;;;4990144;28;20409;-67
2023/12/23 04:32:34;;;;;;;15.85;0.88;;;;;;;;;;4988510;28;20129;-68
2023/12/23 04:35:01;;;;;;;15.70;1.08;;;;;;;;;;4990719;28;20056;-68
2023/12/23 04:37:28;;;;;;;7.90;0.98;;;;;;;;;;4975395;28;20486;-67
2023/12/23 04:39:57;;;;;;;9.40;1.05;;;;;;;;;;4987804;28;20054;-68
2023/12/23 04:42:24;;;;;;;13.18;0.80;;;;;;;;;;4993878;28;20057;-68
2023/12/23 04:44:52;;;;;;;16.98;1.77;;;;;;;;;;4990453;28;20497;-68
2023/12/23 04:47:19;;;;;;;5.82;0.88;;;;;;;;;;4984302;28;20042;-69
2023/12/23 04:49:46;;;;;;;2.55;0.77;;;;;;;;;;4987092;28;20409;-68
2023/12/23 04:52:14;;;;;;;7.82;1.00;;;;;;;;;;4982794;28;20065;-68
2023/12/23 04:54:41;;;;;;;5.15;1.00;;;;;;;;;;4976986;28;20073;-67
2023/12/23 04:57:09;;;;;;;10.55;1.17;;;;;;;;;;4978670;28;20057;-68
2023/12/23 04:59:37;;;;;;;5.80;1.42;;;;;;;;;;4990061;28;20046;-67
2023/12/23 05:02:04;;;;;;;12.20;1.10;;;;;;;;;;4989556;28;20109;-68
2023/12/23 05:04:32;;;;;;;10.70;1.33;;;;;;;;;;4988210;28;20054;-69
2023/12/23 05:06:59;;;;;;;8.73;1.13;;;;;;;;;;4980488;28;20065;-70
2023/12/23 05:09:26;;;;;;;9.15;1.15;;;;;;;;;;4973328;28;20054;-67
2023/12/23 05:11:53;;;;;;;12.85;1.40;;;;;;;;;;4990106;28;20125;-68
2023/12/23 05:14:22;;;;;;;4.45;1.20;;;;;;;;;;4988860;28;20054;-68
2023/12/23 05:16:49;;;;;;;4.32;0.95;;;;;;;;;;4989063;28;20082;-68
2023/12/23 05:19:17;;;;;;;11.50;1.10;;;;;;;;;;4989213;28;20046;-68
2023/12/23 05:21:44;;;;;;;7.22;1.20;;;;;;;;;;4989859;28;20050;-69
2023/12/23 05:24:12;;;;;;;1.38;0.73;;;;;;;;;;4989620;28;20120;-68
2023/12/23 05:26:39;;;;;;;1.17;0.60;;;;;;;;;;4988821;28;20050;-68
2023/12/23 05:29:06;;;;;;;2.45;0.60;;;;;;;;;;4989618;28;20054;-68
2023/12/23 05:31:35;;;;;;;6.50;1.00;;;;;;;;;;4989087;28;20052;-68
2023/12/23 05:34:02;;;;;;;1.52;0.63;;;;;;;;;;4989136;28;20094;-68
2023/12/23 05:36:30;;;;;;;6.30;0.75;;;;;;;;;;4974587;28;20051;-68
2023/12/23 05:38:57;;;;;;;4.55;1.00;;;;;;;;;;4980836;28;20053;-67
2023/12/23 05:41:24;;;;;;;3.35;0.90;;;;;;;;;;4980761;28;20051;-70
2023/12/23 05:43:51;;;;;;;2.72;0.80;;;;;;;;;;4988950;28;20062;-68
2023/12/23 05:46:19;;;;;;;3.70;0.93;;;;;;;;;;4977939;28;20064;-68
2023/12/23 05:48:47;;;;;;;2.58;0.35;;;;;;;;;;4975424;28;20512;-67
2023/12/23 05:51:15;;;;;;;2.45;0.90;;;;;;;;;;4979073;28;20479;-67
2023/12/23 05:53:42;;;;;;;7.53;1.00;;;;;;;;;;4976123;28;20506;-68
2023/12/23 05:56:09;;;;;;;4.60;0.77;;;;;;;;;;4973926;28;20058;-68
2023/12/23 05:58:37;;;;;;;1.77;0.55;;;;;;;;;;4963765;28;20070;-67
2023/12/23 06:01:06;;;;;;;7.50;4.82;;;;;;;;;;4973068;28;20073;-69
2023/12/23 06:03:33;;;;;;;9.38;4.88;;;;;;;;;;4973050;28;20327;-69
2023/12/23 06:06:03;;;;;;;4.32;0.80;;;;;;;;;;4988583;28;20050;-68
2023/12/23 06:08:31;;;;;;;3.92;0.70;;;;;;;;;;4989320;28;20054;-69
2023/12/23 06:10:58;;;;;;;5.53;0.57;;;;;;;;;;4988146;28;20053;-69
2023/12/23 06:13:26;;;;;;;2.85;0.70;;;;;;;;;;4988427;28;20437;-68
2023/12/23 06:15:53;;;;;;;4.68;0.65;;;;;;;;;;4988083;28;20053;-68
2023/12/23 06:18:22;;;;;;;3.58;0.65;;;;;;;;;;4991480;28;20517;-68
2023/12/23 06:20:49;;;;;;;1.90;0.40;;;;;;;;;;4976116;28;20061;-68
2023/12/23 06:23:18;;;;;;;3.35;0.55;;;;;;;;;;4971584;28;20137;-71
2023/12/23 06:25:45;;;;;;;5.43;0.80;;;;;;;;;;4989276;28;20056;-71
2023/12/23 06:28:12;;;;;;;8.60;1.13;;;;;;;;;;4987841;28;20146;-71
2023/12/23 06:30:40;;;;;;;9.05;0.82;;;;;;;;;;4980667;28;20061;-71
2023/12/23 06:33:07;;;;;;;6.60;0.80;;;;;;;;;;4990063;28;20061;-71
2023/12/23 06:35:34;;;;;;;5.00;0.70;;;;;;;;;;4993873;28;20042;-71
2023/12/23 06:38:02;;;;;;;4.20;0.75;;;;;;;;;;4977028;28;20719;-71
2023/12/23 06:40:31;;;;;;;8.93;1.25;;;;;;;;;;4989535;28;20288;-71
2023/12/23 06:42:58;;;;;;;6.68;0.90;;;;;;;;;;4991708;28;20057;-71
2023/12/23 06:45:26;;;;;;;6.93;0.80;;;;;;;;;;4983619;28;20054;-71
2023/12/23 06:47:53;;;;;;;6.93;0.82;;;;;;;;;;4977286;28;20058;-71
2023/12/23 06:50:20;;;;;;;7.07;0.85;;;;;;;;;;4981141;28;20058;-71
2023/12/23 06:52:47;;;;;;;9.90;0.80;;;;;;;;;;4976947;28;20054;-70
2023/12/23 06:55:15;;;;;;;3.20;0.50;;;;;;;;;;4991855;28;20125;-70
2023/12/23 06:57:44;;;;;;;9.75;1.00;;;;;;;;;;4992553;28;20409;-71
2023/12/23 07:00:11;;;;;;;2.38;0.77;;;;;;;;;;4992369;28;20057;-71
2023/12/23 07:02:39;;;;;;;7.28;0.88;;;;;;;;;;4991497;28;20050;-71
2023/12/23 07:05:06;;;;;;;2.85;0.60;;;;;;;;;;4984466;28;20062;-71
2023/12/23 07:07:34;;;;;;;5.43;1.00;;;;;;;;;;4988439;28;20042;-71
2023/12/23 07:10:01;;;;;;;4.00;0.70;;;;;;;;;;4992035;28;20055;-71
2023/12/23 07:12:28;;;;;;;2.67;0.70;;;;;;;;;;4991136;28;20050;-71
2023/12/23 07:14:57;;;;;;;3.33;0.38;;;;;;;;;;4977701;28;20069;-71
2023/12/23 07:17:24;;;;;;;3.10;0.40;;;;;;;;;;4988721;28;20050;-71
2023/12/23 07:19:51;;;;;;;1.40;0.45;;;;;;;;;;4992057;28;20058;-70
2023/12/23 07:22:19;;;;;;;2.63;0.40;;;;;;;;;;4991981;28;20701;-70
2023/12/23 07:24:46;;;;;;;3.72;0.40;;;;;;;;;;4991296;28;20050;-71
2023/12/23 07:27:13;;;;;;;3.10;0.40;;;;;;;;;;4991383;28;20050;-71
2023/12/23 07:29:41;;;;;;;2.38;0.28;;;;;;;;;;4988306;28;20064;-71
2023/12/23 07:32:09;;;;;;;1.65;0.20;;;;;;;;;;4979797;28;20054;-71
2023/12/23 07:34:37;;;;;;;5.00;0.40;;;;;;;;;;4992022;28;20129;-71
2023/12/23 07:37:04;;;;;;;2.47;0.40;;;;;;;;;;4989155;28;20050;-71
2023/12/23 07:39:31;;;;;;;2.90;0.52;;;;;;;;;;4995826;28;20056;-70
2023/12/23 07:41:58;;;;;;;6.35;0.60;;;;;;;;;;4998984;28;20407;-71
2023/12/23 07:44:26;;;;;;;1.35;0.60;;;;;;;;;;4990434;28;20049;-71
2023/12/23 07:46:53;;;;;;;5.03;0.70;;;;;;;;;;4989895;28;20048;-71
2023/12/23 07:49:21;;;;;;;3.58;0.73;;;;;;;;;;4976614;28;20065;-71
2023/12/23 07:51:49;;;;;;;4.57;0.90;;;;;;;;;;4993345;28;20050;-70
2023/12/23 07:54:16;;;;;;;2.05;0.60;;;;;;;;;;4990817;28;20042;-71
2023/12/23 07:56:43;;;;;;;3.20;0.80;;;;;;;;;;4981477;28;20054;-70
2023/12/23 07:59:11;;;;;;;12.38;1.63;;;;;;;;;;4990309;28;20055;-71
2023/12/23 08:01:44;;;;;;;6.07;1.73;;;;;;;;;;4992118;28;20088;-71
2023/12/23 08:04:12;;;;;;;8.50;1.33;;;;;;;;;;4976864;28;20676;-71
2023/12/23 08:06:40;;;;;;;17.20;1.58;;;;;;;;;;4991676;28;20046;-70
2023/12/23 08:09:08;;;;;;;3.35;1.20;;;;;;;;;;4989787;28;20112;-71
2023/12/23 08:11:35;;;;;;;3.22;0.88;;;;;;;;;;4990579;28;20046;-71
2023/12/23 08:14:03;;;;;;;12.63;1.40;;;;;;;;;;4988518;28;20452;-71
2023/12/23 08:16:30;;;;;;;5.50;0.90;;;;;;;;;;4990153;28;20047;-71
2023/12/23 08:18:58;;;;;;;5.88;1.02;;;;;;;;;;4979426;28;20054;-71
2023/12/23 08:21:25;;;;;;;6.50;0.70;;;;;;;;;;4990430;28;20050;-71
2023/12/23 08:23:53;;;;;;;1.52;0.38;;;;;;;;;;4991281;28;20519;-71
2023/12/23 08:26:21;;;;;;;2.45;0.40;;;;;;;;;;4989833;28;20042;-71
2023/12/23 08:28:48;;;;;;;1.00;0.40;;;;;;;;;;4990987;28;20054;-71
2023/12/23 08:31:15;;;;;;;1.63;0.50;;;;;;;;;;4990061;28;20086;-71
2023/12/23 08:33:42;;;;;;;5.00;0.55;;;;;;;;;;4989206;28;20674;-71
2023/12/23 08:36:10;;;;;;;2.08;0.60;;;;;;;;;;4988788;28;20054;-71
2023/12/23 08:38:38;;;;;;;5.03;1.90;;;;;;;;;;4988386;28;20050;-71
2023/12/23 08:41:07;;;;;;;3.17;1.00;;;;;;;;;;4997011;28;20404;-71
2023/12/23 08:43:34;;;;;;;5.75;0.98;;;;;;;;;;4991857;28;20050;-71
2023/12/23 08:46:02;;;;;;;3.25;0.70;;;;;;;;;;4990274;28;20057;-71
2023/12/23 08:48:29;;;;;;;5.32;0.50;;;;;;;;;;4988697;28;20111;-71
2023/12/23 08:50:56;;;;;;;3.92;0.80;;;;;;;;;;4990871;28;20462;-71
2023/12/23 08:53:23;;;;;;;3.08;0.40;;;;;;;;;;4989325;28;20046;-72
2023/12/23 08:55:50;;;;;;;3.05;0.80;;;;;;;;;;4989094;28;20089;-72
2023/12/23 08:58:19;;;;;;;3.63;0.55;;;;;;;;;;4978515;28;20054;-72
2023/12/23 09:00:46;;;;;;;1.88;0.55;;;;;;;;;;4985854;28;20058;-72
2023/12/23 09:03:14;;;;;;;2.83;0.60;;;;;;;;;;4973200;28;20046;-72
2023/12/23 09:05:42;;;;;;;3.28;0.80;;;;;;;;;;4980362;28;20054;-72
2023/12/23 09:08:10;;;;;;;4.50;0.98;;;;;;;;;;4989926;28;20500;-72
2023/12/23 09:10:37;;;;;;;2.78;1.00;;;;;;;;;;4988888;28;20042;-72
2023/12/23 09:13:05;;;;;;;5.72;1.00;;;;;;;;;;4974680;28;20051;-72
2023/12/23 09:15:33;;;;;;;2.67;0.47;;;;;;;;;;4982982;28;20058;-72
2023/12/23 09:18:01;;;;;;;2.17;0.60;;;;;;;;;;4989852;28;20387;-72
2023/12/23 09:20:28;;;;;;;2.78;0.50;;;;;;;;;;4989832;28;20157;-72
2023/12/23 09:22:56;;;;;;;5.05;1.00;;;;;;;;;;4989230;28;20382;-71
2023/12/23 09:25:23;;;;;;;2.80;0.60;;;;;;;;;;4974969;28;20054;-71
2023/12/23 09:27:50;;;;;;;2.00;0.60;;;;;;;;;;4988853;28;20051;-71
2023/12/23 09:30:17;;;;;;;3.90;0.77;;;;;;;;;;4983083;28;20092;-72
2023/12/23 09:32:46;;;;;;;2.05;1.02;;;;;;;;;;4978798;28;20053;-72
2023/12/23 09:35:14;;;;;;;1.98;0.82;;;;;;;;;;4971862;28;20076;-72
2023/12/23 09:37:41;;;;;;;2.25;0.98;;;;;;;;;;4988684;28;20110;-72
2023/12/23 09:40:10;;;;;;;2.17;1.10;;;;;;;;;;4979405;28;20058;-72
2023/12/23 09:42:37;;;;;;;5.53;1.27;;;;;;;;;;4976331;28;20054;-72
2023/12/23 09:45:05;;;;;;;1.63;1.08;;;;;;;;;;4988310;28;20136;-72
2023/12/23 09:47:32;;;;;;;3.45;1.40;;;;;;;;;;4972573;28;20231;-72
2023/12/23 09:50:01;;;;;;;3.40;1.10;;;;;;;;;;4988375;28;20046;-72
2023/12/23 09:52:29;;;;;;;5.45;0.85;;;;;;;;;;4978153;28;20046;-72
2023/12/23 09:54:58;;;;;;;1.38;0.80;;;;;;;;;;4975674;28;20050;-72
2023/12/23 09:57:26;;;;;;;1.58;0.93;;;;;;;;;;4984715;28;20486;-72
2023/12/23 09:59:54;;;;;;;2.05;1.05;;;;;;;;;;4988829;28;20050;-72
2023/12/23 10:02:21;;;;;;;1.83;0.88;;;;;;;;;;4978320;28;20457;-72
2023/12/23 10:04:48;;;;;;;2.72;1.35;;;;;;;;;;4988495;28;20133;-71
2023/12/23 10:07:17;;;;;;;3.20;1.08;;;;;;;;;;4982242;28;20096;-72
2023/12/23 10:09:44;;;;;;;1.60;0.93;;;;;;;;;;4992550;28;20568;-71
2023/12/23 10:12:12;;;;;;;2.47;1.20;;;;;;;;;;4980902;28;20482;-71
2023/12/23 10:14:41;;;;;;;20.60;8.48;;;;;;;;;;4992649;28;20055;-71
2023/12/23 10:17:09;;;;;;;19.60;9.63;;;;;;;;;;4977535;28;20050;-71
2023/12/23 10:19:36;;;;;;;9.48;4.38;;;;;;;;;;4988262;28;20400;-71
2023/12/23 10:22:03;;;;;;;3.53;2.00;;;;;;;;;;4977780;28;20046;-71
2023/12/23 10:24:32;;;;;;;4.80;1.40;;;;;;;;;;4991955;28;20489;-72
2023/12/23 10:27:00;;;;;;;4.80;1.20;;;;;;;;;;4992714;28;20050;-72
2023/12/23 10:29:28;;;;;;;2.55;1.00;;;;;;;;;;4992463;28;20089;-72
2023/12/23 10:31:57;;;;;;;3.83;1.20;;;;;;;;;;4992415;28;20121;-72
2023/12/23 10:34:25;;;;;;;7.22;2.20;;;;;;;;;;4992721;28;20093;-72
2023/12/23 10:36:54;;;;;;;6.28;2.38;;;;;;;;;;4991893;28;20042;-72
2023/12/23 10:39:23;;;;;;;7.38;2.00;;;;;;;;;;4982518;28;20062;-72
2023/12/23 10:41:58;;;;;;;4.80;2.40;;;;;;;;;;4992641;28;20042;-72
2023/12/23 10:44:25;;;;;;;3.50;1.95;;;;;;;;;;4979885;28;21120;-72
2023/12/23 10:46:53;;;;;;;5.72;2.13;;;;;;;;;;4991590;28;20056;-72
2023/12/23 10:49:23;;;;;;;7.43;1.98;;;;;;;;;;4970792;28;20053;-72
2023/12/23 10:51:51;;;;;;;6.57;1.60;;;;;;;;;;4991765;28;20050;-72
2023/12/23 10:54:19;;;;;;;5.75;1.70;;;;;;;;;;4976700;28;20054;-72
2023/12/23 10:56:47;;;;;;;12.15;1.50;;;;;;;;;;4979921;28;20104;-72
2023/12/23 10:59:15;;;;;;;10.70;1.60;;;;;;;;;;4991285;28;20050;-72
2023/12/23 11:01:44;;;;;;;8.70;2.05;;;;;;;;;;4980659;28;20062;-72
2023/12/23 11:04:11;;;;;;;6.28;1.50;;;;;;;;;;4974716;28;20061;-72
2023/12/23 11:06:41;;;;;;;7.00;1.40;;;;;;;;;;4980179;28;20058;-72
2023/12/23 11:09:09;;;;;;;6.35;1.40;;;;;;;;;;4977541;28;20054;-72
2023/12/23 11:11:37;;;;;;;6.50;1.48;;;;;;;;;;4988373;28;20061;-72
2023/12/23 11:14:07;;;;;;;9.00;1.60;;;;;;;;;;4977739;28;20054;-68
2023/12/23 11:16:36;;;;;;;4.13;0.90;;;;;;;;;;4992451;28;20061;-68
2023/12/23 11:19:04;;;;;;;11.35;1.02;;;;;;;;;;4980585;28;20050;-70
2023/12/23 11:21:34;;;;;;;8.50;0.80;;;;;;;;;;4980283;28;20453;-68
2023/12/23 11:24:02;;;;;;;8.55;1.00;;;;;;;;;;4990750;28;20057;-69
2023/12/23 11:26:42;;;;;;;5.45;1.15;;;;;;;;;;4990370;28;20490;-69
2023/12/23 11:29:10;;;;;;;6.65;1.20;;;;;;;;;;4990875;28;20149;-70
2023/12/23 11:31:39;;;;;;;6.97;0.80;;;;;;;;;;4978231;28;20076;-68
2023/12/23 11:34:14;;;;;;;5.93;0.80;;;;;;;;;;4983325;28;20058;-68
2023/12/23 11:36:42;;;;;;;5.03;0.70;;;;;;;;;;4978029;28;20441;-67
2023/12/23 11:39:12;;;;;;;5.70;0.77;;;;;;;;;;4989623;28;20486;-67
2023/12/23 11:41:41;;;;;;;4.15;1.40;;;;;;;;;;4991710;28;20105;-67
2023/12/23 11:44:08;;;;;;;4.30;1.50;;;;;;;;;;4990649;28;20061;-68
2023/12/23 11:46:36;;;;;;;4.45;1.50;;;;;;;;;;4987188;28;20050;-68
2023/12/23 11:49:08;;;;;;;3.38;1.75;;;;;;;;;;4967971;28;20524;-69
2023/12/23 11:51:36;;;;;;;4.70;1.60;;;;;;;;;;4975496;28;20046;-68
2023/12/23 11:54:03;;;;;;;4.43;1.17;;;;;;;;;;4990437;28;20053;-71
2023/12/23 11:56:30;;;;;;;4.55;1.00;;;;;;;;;;4990502;28;20050;-68
2023/12/23 11:59:00;;;;;;;1.42;0.75;;;;;;;;;;4988788;28;20053;-69
2023/12/23 12:01:28;;;;;;;2.38;0.70;;;;;;;;;;4988734;28;20144;-68
2023/12/23 12:03:55;;;;;;;1.98;0.80;;;;;;;;;;4991044;28;20520;-68
2023/12/23 12:06:25;;;;;;;1.70;0.70;;;;;;;;;;4989850;28;20061;-68
2023/12/23 12:08:52;;;;;;;1.80;0.68;;;;;;;;;;4990180;28;20512;-71
2023/12/23 12:11:19;;;;;;;3.10;0.60;;;;;;;;;;4991216;28;20493;-68
2023/12/23 12:13:47;;;;;;;3.55;0.60;;;;;;;;;;4990171;28;21042;-68
2023/12/23 12:16:14;;;;;;;2.60;0.55;;;;;;;;;;4980622;28;20457;-68
2023/12/23 12:18:42;;;;;;;1.92;0.60;;;;;;;;;;4990219;28;20042;-68
2023/12/23 12:21:09;;;;;;;1.30;0.60;;;;;;;;;;4989296;28;20105;-69
2023/12/23 12:23:38;;;;;;;2.83;0.80;;;;;;;;;;4991485;28;20046;-73
2023/12/23 12:26:05;;;;;;;5.88;0.80;;;;;;;;;;4976279;28;20053;-73
2023/12/23 12:28:33;;;;;;;9.32;0.90;;;;;;;;;;4990196;28;20466;-73
2023/12/23 12:31:10;;;;;;;9.15;1.13;;;;;;;;;;4990070;28;20056;-73
2023/12/23 12:33:41;;;;;;;17.25;1.55;;;;;;;;;;4977241;28;20527;-73
2023/12/23 12:36:11;;;;;;;21.27;2.72;;;;;;;;;;4973186;28;20515;-73
2023/12/23 12:38:40;;;;;;;30.40;3.33;;;;;;;;;;4979556;28;20051;-73
2023/12/23 12:41:08;;;;;;;35.85;3.67;;;;;;;;;;4973587;28;20500;-73
2023/12/23 12:43:36;;;;;;;42.50;4.95;;;;;;;;;;4980362;28;20050;-73
2023/12/23 12:46:03;;;;;;;52.35;5.28;;;;;;;;;;4983061;28;20512;-73
2023/12/23 12:48:30;;;;;;;47.35;4.82;;;;;;;;;;4975041;28;20050;-73
2023/12/23 12:50:58;;;;;;;53.55;4.55;;;;;;;;;;4989480;28;20549;-72
2023/12/23 12:53:26;;;;;;;48.55;4.13;;;;;;;;;;4975103;28;20061;-73
2023/12/23 12:55:54;;;;;;;43.00;4.13;;;;;;;;;;4990077;28;20057;-73
2023/12/23 12:58:22;;;;;;;46.40;4.47;;;;;;;;;;4989685;28;20062;-73
2023/12/23 13:00:50;;;;;;;51.22;4.70;;;;;;;;;;4989795;28;20053;-73
2023/12/23 13:03:18;;;;;;;50.55;4.85;;;;;;;;;;4989194;28;20054;-72
2023/12/23 13:05:45;;;;;;;37.63;3.80;;;;;;;;;;4973314;28;20057;-72
2023/12/23 13:08:12;;;;;;;50.30;4.53;;;;;;;;;;4977192;28;20139;-72
2023/12/23 13:10:39;;;;;;;26.38;3.15;;;;;;;;;;4973775;28;20046;-72
2023/12/23 13:13:08;;;;;;;41.72;4.20;;;;;;;;;;4968632;28;20417;-73
2023/12/23 13:15:35;;;;;;;36.45;3.38;;;;;;;;;;4980124;28;20081;-73
2023/12/23 13:18:03;;;;;;;39.45;3.63;;;;;;;;;;4990319;28;20116;-73
2023/12/23 13:20:30;;;;;;;33.28;3.50;;;;;;;;;;4973313;28;20050;-73
2023/12/23 13:22:57;;;;;;;41.22;3.65;;;;;;;;;;4978915;28;20536;-73
2023/12/23 13:25:25;;;;;;;31.98;3.63;;;;;;;;;;4978877;28;20068;-73
2023/12/23 13:27:52;;;;;;;32.00;3.00;;;;;;;;;;4989618;28;20505;-73
2023/12/23 13:30:20;;;;;;;32.03;3.22;;;;;;;;;;4980303;28;20065;-73
2023/12/23 13:32:48;;;;;;;34.33;3.67;;;;;;;;;;4981194;28;20058;-70
2023/12/23 13:35:15;;;;;;;30.30;3.35;;;;;;;;;;4989032;28;20076;-69
2023/12/23 13:37:43;;;;;;;40.47;5.95;;;;;;;;;;4974669;28;20054;-68
2023/12/23 13:40:11;;;;;;;27.55;3.42;;;;;;;;;;4991075;28;20054;-68
2023/12/23 13:42:38;;;;;;;23.73;2.70;;;;;;;;;;4989160;28;20143;-69
2023/12/23 13:45:06;;;;;;;34.92;4.38;;;;;;;;;;4988819;28;20497;-69
2023/12/23 13:47:34;;;;;;;29.65;3.88;;;;;;;;;;4989117;28;20049;-69
2023/12/23 13:50:03;;;;;;;25.40;2.80;;;;;;;;;;4988419;28;20043;-69
2023/12/23 13:52:30;;;;;;;20.35;3.17;;;;;;;;;;4989916;28;20561;-69
2023/12/23 13:54:57;;;;;;;23.67;3.65;;;;;;;;;;4988626;28;20153;-69
2023/12/23 13:57:25;;;;;;;28.92;3.55;;;;;;;;;;4989340;28;20133;-69
2023/12/23 13:59:53;;;;;;;32.13;4.05;;;;;;;;;;4973871;28;20054;-69
2023/12/23 14:02:20;;;;;;;22.23;2.83;;;;;;;;;;4989189;28;20093;-69
2023/12/23 14:04:49;;;;;;;30.83;3.58;;;;;;;;;;4981956;28;20493;-70
2023/12/23 14:07:16;;;;;;;32.60;3.13;;;;;;;;;;4988055;28;20674;-71
2023/12/23 14:09:43;;;;;;;24.90;3.67;;;;;;;;;;4973366;28;20050;-70
2023/12/23 14:12:10;;;;;;;23.33;2.78;;;;;;;;;;4978820;28;20046;-69
2023/12/23 14:14:38;;;;;;;23.02;3.10;;;;;;;;;;4988334;28;20077;-69
2023/12/23 14:17:06;;;;;;;20.50;3.10;;;;;;;;;;4989446;28;20077;-68
2023/12/23 14:19:33;;;;;;;26.55;2.83;;;;;;;;;;4988046;28;20125;-69
2023/12/23 14:22:01;;;;;;;28.50;2.63;;;;;;;;;;4988548;28;20541;-70
2023/12/23 14:24:29;;;;;;;16.55;2.33;;;;;;;;;;4973541;28;20409;-70
2023/12/23 14:26:56;;;;;;;27.65;3.13;;;;;;;;;;4979288;28;20046;-69
2023/12/23 14:29:23;;;;;;;21.83;2.33;;;;;;;;;;4988561;28;20396;-69
2023/12/23 14:31:50;;;;;;;26.88;2.60;;;;;;;;;;4973177;28;20050;-70
2023/12/23 14:34:18;;;;;;;26.42;2.83;;;;;;;;;;4973607;28;20073;-69
2023/12/23 14:36:48;;;;;;;27.92;3.13;;;;;;;;;;4987562;28;20046;-69
2023/12/23 14:39:18;;;;;;;23.02;2.13;;;;;;;;;;4978495;28;20066;-68
2023/12/23 14:41:46;;;;;;;21.98;2.45;;;;;;;;;;4969942;28;20050;-69